METAR Data

Data at: 2121 UTC 14 Dec 2018

METAR for:KJFK (New York/Kennedy Int, NY, US)
Text:KJFK 142051Z 13009KT 10SM SCT028 BKN034 OVC070 09/08 A3037 RMK AO2 SLP284 T00940083 58007
Temperature: 9.4°C ( 49°F)
Dewpoint: 8.3°C ( 47°F) [RH = 93%]
Pressure (altimeter):30.37 inches Hg (1028.5 mb) [Sea level pressure: 1028.4 mb]
Winds:from the SE (130 degrees) at 10 MPH (9 knots; 4.6 m/s)
Visibility:10 or more sm (16+ km)
Ceiling:3400 feet AGL
Clouds: scattered clouds at 2800 feet AGL, broken clouds at 3400 feet AGL, overcast cloud deck at 7000 feet AGL